createdAt,value
2023-03-05T00:01:39.278Z,99178.44
2023-03-05T00:04:10.503Z,99176.97
2023-03-05T00:06:37.161Z,99181.28
2023-03-05T00:09:05.008Z,99182.25
2023-03-05T00:11:33.733Z,99183.03
2023-03-05T00:14:03.575Z,99171.00
2023-03-05T00:16:30.807Z,99180.69
2023-03-05T00:18:58.967Z,99172.00
2023-03-05T00:21:29.791Z,99166.56
2023-03-05T00:23:57.435Z,99158.78
2023-03-05T00:26:26.550Z,99168.38
2023-03-05T00:28:55.462Z,99167.75
2023-03-05T00:31:25.618Z,99159.06
2023-03-05T00:33:57.084Z,99161.56
2023-03-05T00:36:25.214Z,99153.84
2023-03-05T00:38:52.615Z,99152.06
2023-03-05T00:41:19.617Z,99147.63
2023-03-05T00:43:46.667Z,99147.63
2023-03-05T00:46:13.354Z,99146.78
2023-03-05T00:48:39.981Z,99145.91
2023-03-05T00:51:06.908Z,99149.31
2023-03-05T00:53:33.569Z,99143.44
2023-03-05T00:56:00.203Z,99140.69
2023-03-05T00:58:27.304Z,99142.38
2023-03-05T01:00:57.914Z,99139.84
2023-03-05T01:03:24.726Z,99142.31
2023-03-05T01:05:51.376Z,99132.91
2023-03-05T01:08:18.059Z,99139.84
2023-03-05T01:10:44.712Z,99134.63
2023-03-05T01:13:11.673Z,99135.69
2023-03-05T01:15:38.316Z,99133.06
2023-03-05T01:18:05.131Z,99125.41
2023-03-05T01:20:31.768Z,99128.88
2023-03-05T01:22:59.298Z,99122.19
2023-03-05T01:25:26.066Z,99125.56
2023-03-05T01:27:52.773Z,99119.28
2023-03-05T01:30:20.084Z,99118.34
2023-03-05T01:32:46.750Z,99114.03
2023-03-05T01:35:24.666Z,99115.13
2023-03-05T01:37:52.635Z,99113.47
2023-03-05T01:40:24.238Z,99114.34
2023-03-05T01:42:58.554Z,99106.78
2023-03-05T01:45:25.454Z,99110.31
2023-03-05T01:47:52.175Z,99107.69
2023-03-05T01:50:23.216Z,99110.19
2023-03-05T01:52:59.210Z,99104.31
2023-03-05T01:55:29.036Z,99106.78
2023-03-05T01:58:03.343Z,99105.06
2023-03-05T02:00:35.534Z,99092.91
2023-03-05T02:03:05.346Z,99094.63
2023-03-05T02:05:35.235Z,99094.78
2023-03-05T02:08:05.008Z,99084.63
2023-03-05T02:10:38.128Z,99093.50
2023-03-05T02:13:14.428Z,99084.91
2023-03-05T02:15:42.072Z,99084.91
2023-03-05T02:18:09.117Z,99076.91
2023-03-05T02:20:46.785Z,99074.00
2023-03-05T02:23:13.663Z,99078.59
2023-03-05T02:25:40.643Z,99070.81
2023-03-05T02:28:25.709Z,99069.22
2023-03-05T02:30:52.727Z,99066.72
2023-03-05T02:33:20.294Z,99062.34
2023-03-05T02:35:47.159Z,99065.13
2023-03-05T02:38:15.838Z,99063.38
2023-03-05T02:40:42.880Z,99054.75
2023-03-05T02:43:10.794Z,99059.19
2023-03-05T02:45:38.479Z,99060.81
2023-03-05T02:48:05.352Z,99050.28
2023-03-05T02:50:33.082Z,99052.13
2023-03-05T02:52:59.740Z,99052.25
2023-03-05T02:55:26.351Z,99051.41
2023-03-05T02:57:53.013Z,99047.03
2023-03-05T03:00:19.855Z,99041.09
2023-03-05T03:02:46.588Z,99042.88
2023-03-05T03:05:13.213Z,99038.84
2023-03-05T03:07:39.871Z,99029.97
2023-03-05T03:10:07.128Z,99030.03
2023-03-05T03:12:40.411Z,99033.50
2023-03-05T03:15:08.476Z,99027.34
2023-03-05T03:17:36.658Z,99028.25
2023-03-05T03:20:10.275Z,99030.09
2023-03-05T03:22:37.405Z,99027.34
2023-03-05T03:25:04.681Z,99026.56
2023-03-05T03:27:31.455Z,99028.34
2023-03-05T03:30:02.625Z,99018.78
2023-03-05T03:32:29.699Z,99023.94
2023-03-05T03:34:56.595Z,99030.09
2023-03-05T03:37:23.376Z,99019.66
2023-03-05T03:39:50.005Z,99012.72
2023-03-05T03:42:21.721Z,99001.13
2023-03-05T03:44:49.018Z,99000.72
2023-03-05T03:47:15.720Z,98992.59
2023-03-05T03:49:42.327Z,98988.97
2023-03-05T03:52:09.128Z,98997.81
2023-03-05T03:54:35.989Z,98994.38
2023-03-05T03:57:03.702Z,98991.03
2023-03-05T03:59:30.338Z,98988.28
2023-03-05T04:01:56.942Z,98983.91
2023-03-05T04:04:23.600Z,98977.72
2023-03-05T04:06:50.244Z,98981.13
2023-03-05T04:09:16.834Z,98974.03
2023-03-05T04:11:43.516Z,98975.00
2023-03-05T04:14:10.108Z,98974.59
2023-03-05T04:16:36.787Z,98971.94
2023-03-05T04:19:03.422Z,98968.25
2023-03-05T04:21:30.550Z,98967.81
2023-03-05T04:23:57.249Z,98965.28
2023-03-05T04:26:23.960Z,98963.59
2023-03-05T04:28:50.550Z,98957.81
2023-03-05T04:31:17.534Z,98964.44
2023-03-05T04:33:44.207Z,98964.44
2023-03-05T04:36:10.870Z,98966.16
2023-03-05T04:38:37.499Z,98971.22
2023-03-05T04:41:04.280Z,98962.88
2023-03-05T04:43:30.929Z,98963.66
2023-03-05T04:45:57.699Z,98949.69
2023-03-05T04:48:24.379Z,98943.78
2023-03-05T04:50:51.000Z,98937.53
2023-03-05T04:53:17.703Z,98944.59
2023-03-05T04:55:44.354Z,98940.44
2023-03-05T04:58:11.095Z,98928.84
2023-03-05T05:00:37.923Z,98938.75
2023-03-05T05:03:04.856Z,98930.91
2023-03-05T05:05:31.494Z,98921.38
2023-03-05T05:07:58.858Z,98923.69
2023-03-05T05:10:26.582Z,98915.25
2023-03-05T05:12:53.350Z,98910.94
2023-03-05T05:15:20.885Z,98915.25
2023-03-05T05:17:47.909Z,98917.72
2023-03-05T05:20:16.027Z,98914.50
2023-03-05T05:22:44.027Z,98910.19
2023-03-05T05:25:10.852Z,98906.56
2023-03-05T05:27:39.546Z,98910.78
2023-03-05T05:30:07.684Z,98915.84
2023-03-05T05:32:34.656Z,98908.25
2023-03-05T05:35:01.420Z,98914.38
2023-03-05T05:37:28.080Z,98910.94
2023-03-05T05:39:54.750Z,98912.91
2023-03-05T05:42:23.362Z,98913.75
2023-03-05T05:44:50.403Z,98915.59
2023-03-05T05:47:18.297Z,98907.69
2023-03-05T05:49:45.012Z,98918.00
2023-03-05T05:52:11.759Z,98918.75
2023-03-05T05:54:38.678Z,98920.47
2023-03-05T05:57:05.625Z,98909.25
2023-03-05T05:59:32.249Z,98912.50
2023-03-05T06:01:59.631Z,98919.25
2023-03-05T06:04:26.488Z,98915.25
2023-03-05T06:06:53.082Z,98919.53
2023-03-05T06:09:19.788Z,98915.25
2023-03-05T06:11:46.472Z,98914.31
2023-03-05T06:14:13.345Z,98914.63
2023-03-05T06:16:40.271Z,98915.69
2023-03-05T06:19:06.995Z,98923.38
2023-03-05T06:21:34.052Z,98921.53
2023-03-05T06:24:01.180Z,98914.50
2023-03-05T06:26:28.078Z,98916.31
2023-03-05T06:28:55.393Z,98916.09
2023-03-05T06:31:27.286Z,98912.78
2023-03-05T06:34:02.951Z,98910.78
2023-03-05T06:36:30.499Z,98904.84
2023-03-05T06:38:57.899Z,98912.50
2023-03-05T06:41:30.249Z,98902.06
2023-03-05T06:43:58.797Z,98898.28
2023-03-05T06:46:28.592Z,98888.53
2023-03-05T06:48:57.233Z,98885.91
2023-03-05T06:51:27.522Z,98890.69
2023-03-05T06:53:55.078Z,98884.69
2023-03-05T06:56:22.765Z,98882.56
2023-03-05T06:58:51.274Z,98894.53
2023-03-05T07:01:19.120Z,98887.63
2023-03-05T07:03:49.728Z,98894.38
2023-03-05T07:06:16.650Z,98891.94
2023-03-05T07:08:44.946Z,98887.31
2023-03-05T07:11:13.986Z,98892.09
2023-03-05T07:13:41.233Z,98887.56
2023-03-05T07:16:10.370Z,98886.72
2023-03-05T07:18:37.238Z,98886.41
2023-03-05T07:21:08.630Z,98886.72
2023-03-05T07:23:36.377Z,98883.03
2023-03-05T07:26:07.087Z,98887.88
2023-03-05T07:28:34.601Z,98886.88
2023-03-05T07:31:04.748Z,98885.72
2023-03-05T07:33:32.299Z,98888.97
2023-03-05T07:35:59.364Z,98883.78
2023-03-05T07:38:26.113Z,98888.88
2023-03-05T07:40:52.877Z,98880.88
2023-03-05T07:43:19.611Z,98880.44
2023-03-05T07:45:46.704Z,98883.03
2023-03-05T07:48:17.145Z,98878.44
2023-03-05T07:50:44.609Z,98876.56
2023-03-05T07:53:11.287Z,98878.44
2023-03-05T07:55:45.259Z,98878.56
2023-03-05T07:58:13.466Z,98874.25
2023-03-05T08:00:40.594Z,98866.13
2023-03-05T08:03:07.654Z,98872.19
2023-03-05T08:05:34.415Z,98867.44
2023-03-05T08:08:01.072Z,98862.81
2023-03-05T08:10:27.885Z,98870.91
2023-03-05T08:12:54.544Z,98865.28
2023-03-05T08:15:21.361Z,98867.06
2023-03-05T08:17:48.010Z,98865.97
2023-03-05T08:20:14.753Z,98861.28
2023-03-05T08:22:43.232Z,98866.44
2023-03-05T08:25:10.160Z,98853.03
2023-03-05T08:27:42.126Z,98845.66
2023-03-05T08:30:13.189Z,98850.88
2023-03-05T08:32:39.921Z,98854.09
2023-03-05T08:35:07.017Z,98842.16
2023-03-05T08:37:33.670Z,98846.06
2023-03-05T08:40:00.379Z,98834.88
2023-03-05T08:42:27.206Z,98833.56
2023-03-05T08:44:53.871Z,98841.50
2023-03-05T08:47:20.534Z,98837.22
2023-03-05T08:49:47.573Z,98836.63
2023-03-05T08:52:14.297Z,98820.41
2023-03-05T08:54:41.027Z,98833.00
2023-03-05T08:57:08.539Z,98825.34
2023-03-05T08:59:35.139Z,98820.75
2023-03-05T09:02:02.608Z,98810.88
2023-03-05T09:04:29.337Z,98814.66
2023-03-05T09:06:57.558Z,98815.41
2023-03-05T09:09:24.992Z,98817.34
2023-03-05T09:11:52.106Z,98811.44
2023-03-05T09:14:18.973Z,98824.47
2023-03-05T09:16:45.788Z,98817.13
2023-03-05T09:19:15.172Z,98813.84
2023-03-05T09:21:42.141Z,98810.09
2023-03-05T09:24:08.897Z,98812.56
2023-03-05T09:26:35.597Z,98819.56
2023-03-05T09:29:02.319Z,98813.81
2023-03-05T09:31:29.192Z,98816.63
2023-03-05T09:33:55.856Z,98813.00
2023-03-05T09:36:29.635Z,98815.03
2023-03-05T09:38:56.648Z,98815.50
2023-03-05T09:41:34.561Z,98813.16
2023-03-05T09:44:22.416Z,98807.09
2023-03-05T09:46:57.040Z,98811.13
2023-03-05T09:49:45.727Z,98805.88
2023-03-05T09:52:23.329Z,98804.38
2023-03-05T09:54:56.208Z,98806.22
2023-03-05T09:57:45.554Z,98804.03
2023-03-05T10:00:35.983Z,98797.78
2023-03-05T10:03:10.167Z,98797.34
2023-03-05T10:05:58.845Z,98789.84
2023-03-05T10:08:32.727Z,98787.84
2023-03-05T10:11:06.865Z,98791.38
2023-03-05T10:13:39.394Z,98784.88
2023-03-05T10:16:30.882Z,98783.09
2023-03-05T10:19:09.990Z,98783.25
2023-03-05T10:21:50.530Z,98784.59
2023-03-05T10:24:52.916Z,98789.00
2023-03-05T10:27:26.502Z,98773.44
2023-03-05T10:30:08.252Z,98779.44
2023-03-05T10:32:40.373Z,98768.00
2023-03-05T10:35:19.654Z,98760.84
2023-03-05T10:38:05.493Z,98754.81
2023-03-05T10:40:48.751Z,98749.09
2023-03-05T10:43:43.265Z,98740.03
2023-03-05T10:46:16.891Z,98732.91
2023-03-05T10:48:50.977Z,98734.78
2023-03-05T10:51:28.288Z,98732.81
2023-03-05T10:54:18.614Z,98729.06
2023-03-05T10:56:45.331Z,98723.16
2023-03-05T10:59:11.946Z,98723.72
2023-03-05T11:01:38.637Z,98720.19
2023-03-05T11:04:08.664Z,98717.94
2023-03-05T11:06:37.326Z,98710.63
2023-03-05T11:09:18.136Z,98713.03
2023-03-05T11:12:01.572Z,98703.94
2023-03-05T11:14:31.430Z,98706.28
2023-03-05T11:16:58.169Z,98697.66
2023-03-05T11:19:33.181Z,98695.25
2023-03-05T11:22:10.950Z,98693.56
2023-03-05T11:24:38.151Z,98693.22
2023-03-05T11:27:50.433Z,98696.00
2023-03-05T11:30:26.262Z,98692.63
2023-03-05T11:33:16.091Z,98690.22
2023-03-05T11:35:44.187Z,98693.75
2023-03-05T11:38:24.882Z,98697.19
2023-03-05T11:40:55.001Z,98693.19
2023-03-05T11:43:24.989Z,98681.50
2023-03-05T11:45:55.890Z,98690.22
2023-03-05T11:48:28.797Z,98690.38
2023-03-05T11:50:59.313Z,98688.31
2023-03-05T11:53:29.688Z,98688.13
2023-03-05T11:56:03.834Z,98685.88
2023-03-05T11:58:43.558Z,98688.13
2023-03-05T12:01:17.319Z,98679.06
2023-03-05T12:03:44.909Z,98670.34
2023-03-05T12:06:23.155Z,98676.91
2023-03-05T12:08:54.266Z,98667.16
2023-03-05T12:11:26.404Z,98662.47
2023-03-05T12:13:57.822Z,98664.03
2023-03-05T12:16:41.477Z,98653.84
2023-03-05T12:19:32.903Z,98652.38
2023-03-05T12:21:59.911Z,98642.38
2023-03-05T12:24:28.418Z,98632.63
2023-03-05T12:27:04.544Z,98624.75
2023-03-05T12:29:51.840Z,98627.03
2023-03-05T12:32:34.098Z,98620.00
2023-03-05T12:35:49.594Z,98620.13
2023-03-05T12:38:34.528Z,98613.09
2023-03-05T12:41:23.049Z,98617.34
2023-03-05T12:44:07.848Z,98614.41
2023-03-05T12:46:44.828Z,98606.06
2023-03-05T12:49:20.811Z,98607.47
2023-03-05T12:51:49.392Z,98607.78
2023-03-05T12:54:30.572Z,98607.56
2023-03-05T12:57:00.736Z,98598.97
2023-03-05T12:59:42.381Z,98600.69
2023-03-05T13:02:23.407Z,98594.66
2023-03-05T13:04:53.166Z,98600.38
2023-03-05T13:07:19.867Z,98595.81
2023-03-05T13:10:07.016Z,98596.59
2023-03-05T13:12:36.624Z,98595.06
2023-03-05T13:15:09.415Z,98584.59
2023-03-05T13:17:51.075Z,98588.16
2023-03-05T13:20:33.979Z,98584.13
2023-03-05T13:23:09.691Z,98581.78
2023-03-05T13:25:36.281Z,98580.09
2023-03-05T13:28:11.924Z,98586.63
2023-03-05T13:30:38.707Z,98576.31
2023-03-05T13:33:06.182Z,98575.50
2023-03-05T13:35:33.443Z,98577.63
2023-03-05T13:38:00.943Z,98567.03
2023-03-05T13:40:32.778Z,98570.06
2023-03-05T13:43:12.414Z,98567.66
2023-03-05T13:45:40.103Z,98565.09
2023-03-05T13:48:07.485Z,98561.81
2023-03-05T13:50:39.488Z,98558.66
2023-03-05T13:53:25.313Z,98556.81
2023-03-05T13:55:58.083Z,98555.34
2023-03-05T13:59:03.445Z,98553.59
2023-03-05T14:01:33.714Z,98551.41
2023-03-05T14:04:19.899Z,98544.94
2023-03-05T14:06:49.067Z,98539.06
2023-03-05T14:09:41.189Z,98544.72
2023-03-05T14:12:21.576Z,98538.56
2023-03-05T14:14:48.963Z,98531.28
2023-03-05T14:17:37.592Z,98520.56
2023-03-05T14:20:23.157Z,98524.91
2023-03-05T14:22:55.008Z,98515.31
2023-03-05T14:25:40.121Z,98512.59
2023-03-05T14:28:17.119Z,98509.31
2023-03-05T14:30:48.450Z,98504.84
2023-03-05T14:33:26.014Z,98503.44
2023-03-05T14:35:53.960Z,98503.88
2023-03-05T14:38:26.354Z,98494.88
2023-03-05T14:40:53.054Z,98491.31
2023-03-05T14:43:19.867Z,98493.22
2023-03-05T14:45:47.946Z,98477.25
2023-03-05T14:48:18.796Z,98479.41
2023-03-05T14:50:57.164Z,98485.94
2023-03-05T14:53:40.281Z,98476.91
2023-03-05T14:56:17.675Z,98471.84
2023-03-05T14:58:44.585Z,98465.16
2023-03-05T15:01:14.223Z,98467.25
2023-03-05T15:03:41.792Z,98465.56
2023-03-05T15:06:27.706Z,98470.63
2023-03-05T15:08:54.338Z,98465.19
2023-03-05T15:11:22.680Z,98467.34
2023-03-05T15:13:52.084Z,98463.88
2023-03-05T15:16:19.346Z,98467.28
2023-03-05T15:18:46.504Z,98465.03
2023-03-05T15:21:13.340Z,98468.78
2023-03-05T15:23:40.317Z,98455.03
2023-03-05T15:26:09.409Z,98465.03
2023-03-05T15:28:38.020Z,98467.38
2023-03-05T15:31:06.561Z,98459.78
2023-03-05T15:33:33.957Z,98463.56
2023-03-05T15:36:01.170Z,98455.69
2023-03-05T15:38:28.011Z,98450.84
2023-03-05T15:40:54.760Z,98452.53
2023-03-05T15:43:21.393Z,98448.84
2023-03-05T15:45:48.298Z,98447.19
2023-03-05T15:48:35.293Z,98441.13
2023-03-05T15:51:02.082Z,98446.53
2023-03-05T15:53:28.922Z,98448.22
2023-03-05T15:55:58.737Z,98442.81
2023-03-05T15:58:25.480Z,98445.13
2023-03-05T16:00:52.173Z,98436.13
2023-03-05T16:03:19.305Z,98435.13
2023-03-05T16:05:46.114Z,98444.00
2023-03-05T16:08:13.070Z,98435.41
2023-03-05T16:10:41.051Z,98429.88
2023-03-05T16:13:13.437Z,98423.72
2023-03-05T16:15:41.824Z,98429.72
2023-03-05T16:18:12.371Z,98424.47
2023-03-05T16:20:39.271Z,98420.47
2023-03-05T16:23:06.606Z,98419.78
2023-03-05T16:25:33.618Z,98408.78
2023-03-05T16:28:00.414Z,98410.94
2023-03-05T16:30:27.215Z,98412.22
2023-03-05T16:32:54.040Z,98413.53
2023-03-05T16:35:21.415Z,98411.22
2023-03-05T16:37:48.212Z,98415.50
2023-03-05T16:40:15.331Z,98408.22
2023-03-05T16:42:42.729Z,98407.06
2023-03-05T16:45:11.033Z,98403.38
2023-03-05T16:47:38.649Z,98402.53
2023-03-05T16:50:06.662Z,98405.31
2023-03-05T16:52:33.347Z,98403.19
2023-03-05T16:55:00.092Z,98398.66
2023-03-05T16:57:28.958Z,98399.59
2023-03-05T16:59:57.007Z,98397.38
2023-03-05T17:02:23.998Z,98397.09
2023-03-05T17:04:50.950Z,98397.19
2023-03-05T17:07:18.072Z,98394.66
2023-03-05T17:09:44.785Z,98398.22
2023-03-05T17:12:11.533Z,98398.22
2023-03-05T17:14:38.357Z,98399.34
2023-03-05T17:17:04.946Z,98397.44
2023-03-05T17:19:32.167Z,98401.66
2023-03-05T17:21:58.931Z,98403.91
2023-03-05T17:24:26.195Z,98398.13
2023-03-05T17:26:52.860Z,98397.75
2023-03-05T17:29:20.027Z,98401.28
2023-03-05T17:31:49.050Z,98399.59
2023-03-05T17:34:16.801Z,98403.53
2023-03-05T17:36:45.517Z,98404.84
2023-03-05T17:39:13.213Z,98409.97
2023-03-05T17:41:40.073Z,98411.53
2023-03-05T17:44:07.182Z,98416.31
2023-03-05T17:46:33.731Z,98413.22
2023-03-05T17:49:00.488Z,98411.78
2023-03-05T17:51:27.176Z,98413.44
2023-03-05T17:53:53.903Z,98410.81
2023-03-05T17:56:22.177Z,98405.50
2023-03-05T17:58:49.642Z,98401.84
2023-03-05T18:01:31.935Z,98407.56
2023-03-05T18:03:59.343Z,98405.03
2023-03-05T18:06:26.296Z,98392.88
2023-03-05T18:08:53.125Z,98400.00
2023-03-05T18:11:19.843Z,98399.78
2023-03-05T18:13:46.513Z,98400.72
2023-03-05T18:16:16.905Z,98396.53
2023-03-05T18:18:44.590Z,98398.47
2023-03-05T18:21:11.282Z,98401.19
2023-03-05T18:23:38.008Z,98394.38
2023-03-05T18:26:04.787Z,98395.50
2023-03-05T18:28:31.697Z,98400.97
2023-03-05T18:30:58.415Z,98394.16
2023-03-05T18:33:25.765Z,98385.97
2023-03-05T18:35:53.199Z,98385.38
2023-03-05T18:38:24.180Z,98387.25
2023-03-05T18:40:52.331Z,98384.34
2023-03-05T18:43:21.053Z,98382.94
2023-03-05T18:45:53.161Z,98385.94
2023-03-05T18:48:20.574Z,98385.84
2023-03-05T18:50:51.303Z,98380.59
2023-03-05T18:53:18.163Z,98379.78
2023-03-05T18:55:45.058Z,98373.78
2023-03-05T18:58:15.740Z,98379.94
2023-03-05T19:00:43.977Z,98374.34
2023-03-05T19:03:11.512Z,98377.50
2023-03-05T19:05:39.337Z,98371.25
2023-03-05T19:08:07.738Z,98372.44
2023-03-05T19:10:34.697Z,98373.00
2023-03-05T19:13:30.170Z,98367.28
2023-03-05T19:15:56.904Z,98373.00
2023-03-05T19:18:25.760Z,98370.31
2023-03-05T19:20:56.036Z,98365.25
2023-03-05T19:23:22.933Z,98365.81
2023-03-05T19:25:49.655Z,98352.47
2023-03-05T19:28:16.432Z,98350.56
2023-03-05T19:30:43.113Z,98351.25
2023-03-05T19:33:09.822Z,98348.81
2023-03-05T19:35:36.556Z,98352.47
2023-03-05T19:38:03.393Z,98347.22
2023-03-05T19:40:30.352Z,98346.56
2023-03-05T19:42:58.389Z,98343.22
2023-03-05T19:45:25.096Z,98340.47
2023-03-05T19:47:53.140Z,98345.91
2023-03-05T19:50:20.047Z,98344.06
2023-03-05T19:52:46.726Z,98340.47
2023-03-05T19:55:13.512Z,98341.31
2023-03-05T19:57:40.298Z,98342.16
2023-03-05T20:00:07.888Z,98340.47
2023-03-05T20:02:34.609Z,98331.34
2023-03-05T20:05:01.492Z,98329.75
2023-03-05T20:07:28.884Z,98327.97
2023-03-05T20:09:55.742Z,98332.63
2023-03-05T20:12:23.215Z,98320.28
2023-03-05T20:14:50.020Z,98323.75
2023-03-05T20:17:16.816Z,98317.44
2023-03-05T20:19:43.486Z,98327.13
2023-03-05T20:22:10.267Z,98315.28
2023-03-05T20:24:37.565Z,98314.91
2023-03-05T20:27:04.332Z,98315.38
2023-03-05T20:29:31.027Z,98317.91
2023-03-05T20:31:57.758Z,98313.63
2023-03-05T20:34:24.633Z,98316.41
2023-03-05T20:36:51.274Z,98314.63
2023-03-05T20:39:18.030Z,98307.63
2023-03-05T20:41:44.836Z,98306.06
2023-03-05T20:44:11.567Z,98304.81
2023-03-05T20:46:45.353Z,98308.00
2023-03-05T20:49:11.963Z,98301.56
2023-03-05T20:51:39.397Z,98299.50
2023-03-05T20:54:10.061Z,98294.28
2023-03-05T20:56:37.133Z,98286.19
2023-03-05T20:59:07.502Z,98293.63
2023-03-05T21:01:36.282Z,98292.50
2023-03-05T21:04:03.984Z,98287.09
2023-03-05T21:06:31.904Z,98290.63
2023-03-05T21:08:59.371Z,98284.56
2023-03-05T21:11:26.393Z,98285.69
2023-03-05T21:13:53.022Z,98284.09
2023-03-05T21:16:23.468Z,98280.53
2023-03-05T21:18:51.168Z,98287.28
2023-03-05T21:21:18.252Z,98276.06
2023-03-05T21:23:45.959Z,98276.25
2023-03-05T21:26:13.498Z,98278.28
2023-03-05T21:28:40.672Z,98266.06
2023-03-05T21:31:10.910Z,98266.91
2023-03-05T21:33:37.946Z,98262.63
2023-03-05T21:36:05.230Z,98259.16
2023-03-05T21:38:34.081Z,98252.66
2023-03-05T21:41:02.055Z,98264.13
2023-03-05T21:43:31.122Z,98255.34
2023-03-05T21:45:59.813Z,98251.16
2023-03-05T21:48:26.572Z,98251.16
2023-03-05T21:50:54.831Z,98242.28
2023-03-05T21:53:22.066Z,98237.06
2023-03-05T21:56:10.981Z,98233.34
2023-03-05T21:58:37.583Z,98227.19
2023-03-05T22:01:04.580Z,98228.84
2023-03-05T22:03:31.389Z,98221.38
2023-03-05T22:05:58.173Z,98217.81
2023-03-05T22:08:25.315Z,98219.69
2023-03-05T22:10:52.313Z,98222.31
2023-03-05T22:13:22.337Z,98220.44
2023-03-05T22:15:51.697Z,98208.13
2023-03-05T22:18:19.910Z,98216.53
2023-03-05T22:20:54.909Z,98211.09
2023-03-05T22:23:24.025Z,98205.88
2023-03-05T22:25:57.916Z,98198.03
2023-03-05T22:28:25.516Z,98193.66
2023-03-05T22:30:56.018Z,98195.78
2023-03-05T22:33:23.308Z,98190.78
2023-03-05T22:35:50.342Z,98188.69
2023-03-05T22:38:18.567Z,98182.63
2023-03-05T22:40:47.860Z,98179.72
2023-03-05T22:43:15.750Z,98184.97
2023-03-05T22:45:42.891Z,98175.63
2023-03-05T22:48:10.171Z,98172.66
2023-03-05T22:50:42.297Z,98168.13
2023-03-05T22:53:09.038Z,98170.97
2023-03-05T22:55:42.083Z,98160.91
2023-03-05T22:58:08.831Z,98160.63
2023-03-05T23:00:35.706Z,98157.91
2023-03-05T23:03:02.598Z,98158.69
2023-03-05T23:05:34.835Z,98148.03
2023-03-05T23:08:01.708Z,98143.84
2023-03-05T23:10:29.350Z,98140.47
2023-03-05T23:12:58.042Z,98140.47
2023-03-05T23:15:28.039Z,98145.16
2023-03-05T23:17:54.946Z,98139.16
2023-03-05T23:20:24.396Z,98133.69
2023-03-05T23:22:56.214Z,98129.75
2023-03-05T23:25:25.412Z,98123.03
2023-03-05T23:27:54.440Z,98128.63
2023-03-05T23:30:27.541Z,98137.22
2023-03-05T23:33:04.241Z,98126.28
2023-03-05T23:35:43.287Z,98124.69
2023-03-05T23:38:13.737Z,98125.63
2023-03-05T23:40:43.538Z,98128.34
2023-03-05T23:43:10.976Z,98117.91
2023-03-05T23:45:38.141Z,98120.78
2023-03-05T23:48:04.905Z,98117.97
2023-03-05T23:50:35.345Z,98109.31
2023-03-05T23:53:04.772Z,98116.50
2023-03-05T23:55:33.024Z,98113.31
2023-03-05T23:58:00.264Z,98112.72
